Time;durP1;ratioP1;P1;durP2;ratioP2;P2;SDS_P1;SDS_P2;PMS_P1;PMS_P2;Temp;Humidity;BMP_temperature;BMP_pressure;BME280_temperature;BME280_humidity;BME280_pressure;Samples;Min_cycle;Max_cycle;Signal;HPM_P1;HPM_P2
2023/09/10 00:00:50;;;;;;;13.80;10.90;;;18.40;99.90;;;;;;6241532;23;20023;-70
2023/09/10 00:03:16;;;;;;;12.25;10.40;;;18.40;99.90;;;;;;6241113;23;20019;-70
2023/09/10 00:05:43;;;;;;;14.85;10.60;;;18.30;99.90;;;;;;6241271;23;20031;-70
2023/09/10 00:08:08;;;;;;;13.27;9.70;;;18.30;99.90;;;;;;6241297;23;20016;-70
2023/09/10 00:10:34;;;;;;;14.50;9.85;;;18.30;99.90;;;;;;6241475;23;20348;-70
2023/09/10 00:13:00;;;;;;;13.13;9.05;;;18.30;99.90;;;;;;6241662;23;20575;-70
2023/09/10 00:15:25;;;;;;;11.80;9.18;;;18.30;99.90;;;;;;6241744;23;20016;-70
2023/09/10 00:17:52;;;;;;;13.10;8.63;;;18.30;99.90;;;;;;6241410;23;20383;-70
2023/09/10 00:20:18;;;;;;;12.43;9.77;;;18.20;99.90;;;;;;6241700;23;20016;-70
2023/09/10 00:22:44;;;;;;;13.48;9.77;;;18.20;99.90;;;;;;6241414;23;20318;-70
2023/09/10 00:25:10;;;;;;;13.18;9.57;;;18.20;99.90;;;;;;6214141;23;20431;-69
2023/09/10 00:27:36;;;;;;;11.43;9.18;;;18.20;99.90;;;;;;6241686;23;20103;-70
2023/09/10 00:30:01;;;;;;;10.77;9.27;;;18.20;99.90;;;;;;6241535;23;20047;-70
2023/09/10 00:32:27;;;;;;;11.85;9.90;;;18.10;99.90;;;;;;6241457;23;20344;-70
2023/09/10 00:34:53;;;;;;;13.80;10.10;;;18.10;99.90;;;;;;6214096;23;20063;-70
2023/09/10 00:37:18;;;;;;;14.82;10.75;;;18.10;99.90;;;;;;6188924;23;20027;-70
2023/09/10 00:39:45;;;;;;;12.55;10.00;;;18.10;99.90;;;;;;6240862;23;20352;-70
2023/09/10 00:42:10;;;;;;;15.90;10.82;;;18.10;99.90;;;;;;6214140;23;20031;-70
2023/09/10 00:44:36;;;;;;;13.65;11.35;;;18.10;99.90;;;;;;6241247;23;20504;-70
2023/09/10 00:47:03;;;;;;;14.07;12.23;;;18.00;99.90;;;;;;6214133;23;20028;-70
2023/09/10 00:49:30;;;;;;;13.68;10.25;;;18.10;99.90;;;;;;6213911;23;20400;-70
2023/09/10 00:51:58;;;;;;;13.65;9.77;;;18.10;99.90;;;;;;6241038;23;20384;-70
2023/09/10 00:54:25;;;;;;;12.25;10.57;;;17.90;99.90;;;;;;6242034;23;20031;-70
2023/09/10 00:56:51;;;;;;;14.23;11.02;;;17.90;99.90;;;;;;6242982;23;20020;-70
2023/09/10 00:59:16;;;;;;;15.68;10.82;;;17.80;99.90;;;;;;6215900;23;20020;-70
2023/09/10 01:01:42;;;;;;;14.00;11.82;;;17.80;99.90;;;;;;6242835;23;20456;-70
2023/09/10 01:04:08;;;;;;;15.13;11.98;;;17.80;99.90;;;;;;6242788;23;20031;-70
2023/09/10 01:06:35;;;;;;;18.17;12.18;;;17.80;99.90;;;;;;6215619;23;20027;-70
2023/09/10 01:09:00;;;;;;;17.33;12.10;;;17.70;99.90;;;;;;6215791;23;20020;-70
2023/09/10 01:11:45;;;;;;;17.20;13.07;;;17.70;99.90;;;;;;6243003;23;20086;-71
2023/09/10 01:14:38;;;;;;;15.55;12.30;;;17.80;99.90;;;;;;6243151;23;20035;-70
2023/09/10 01:17:14;;;;;;;17.20;13.02;;;17.80;99.90;;;;;;6215744;23;20139;-70
2023/09/10 01:19:46;;;;;;;15.93;13.00;;;17.80;99.90;;;;;;6242692;23;20024;-70
2023/09/10 01:22:48;;;;;;;15.70;12.02;;;17.80;99.90;;;;;;6242716;23;20020;-70
2023/09/10 01:25:16;;;;;;;17.08;12.82;;;17.80;99.90;;;;;;6242196;23;20024;-70
2023/09/10 01:27:43;;;;;;;15.73;12.40;;;17.80;99.90;;;;;;6242813;23;20020;-70
2023/09/10 01:30:09;;;;;;;15.18;12.35;;;17.70;99.90;;;;;;6242921;23;20373;-70
2023/09/10 01:32:44;;;;;;;14.95;12.20;;;17.70;99.90;;;;;;6215228;23;20716;-70
2023/09/10 01:35:21;;;;;;;14.65;12.07;;;17.80;99.90;;;;;;6215164;23;20038;-70
2023/09/10 01:38:01;;;;;;;16.80;11.65;;;17.80;99.90;;;;;;6215579;23;20022;-70
2023/09/10 01:40:34;;;;;;;15.50;11.98;;;17.80;99.90;;;;;;6242816;23;20648;-70
2023/09/10 01:43:02;;;;;;;15.25;12.68;;;17.70;99.90;;;;;;6242702;23;20094;-70
2023/09/10 01:45:30;;;;;;;13.50;10.85;;;17.80;99.90;;;;;;6242777;23;20332;-70
2023/09/10 01:47:56;;;;;;;13.80;11.38;;;17.70;99.90;;;;;;6242423;23;20031;-70
2023/09/10 01:50:22;;;;;;;15.38;11.35;;;17.70;99.90;;;;;;6215127;23;20376;-70
2023/09/10 01:52:47;;;;;;;14.55;11.35;;;17.70;99.90;;;;;;6215329;23;20038;-70
2023/09/10 01:55:13;;;;;;;13.75;11.23;;;17.70;99.90;;;;;;6242503;23;20051;-70
2023/09/10 01:57:39;;;;;;;16.48;10.70;;;17.70;99.90;;;;;;6242761;23;20020;-70
2023/09/10 02:00:07;;;;;;;12.43;10.88;;;17.70;99.90;;;;;;6215857;23;20032;-70
2023/09/10 02:02:33;;;;;;;12.18;10.82;;;17.70;99.90;;;;;;6190802;23;20055;-70
2023/09/10 02:04:59;;;;;;;14.82;11.50;;;17.70;99.90;;;;;;6215389;23;20032;-70
2023/09/10 02:07:25;;;;;;;16.13;13.15;;;17.60;99.90;;;;;;6215815;23;20484;-70
2023/09/10 02:09:51;;;;;;;15.63;13.40;;;17.60;99.90;;;;;;6242278;23;20325;-70
2023/09/10 02:12:16;;;;;;;16.63;12.32;;;17.50;99.90;;;;;;6242425;23;20445;-70
2023/09/10 02:14:48;;;;;;;14.15;11.52;;;17.50;99.90;;;;;;6190177;23;20031;-70
2023/09/10 02:17:14;;;;;;;17.17;12.63;;;17.50;99.90;;;;;;6215153;23;20027;-70
2023/09/10 02:19:40;;;;;;;15.70;12.25;;;17.50;99.90;;;;;;6214938;23;20024;-70
2023/09/10 02:22:06;;;;;;;15.85;12.65;;;17.50;99.90;;;;;;6216393;23;20432;-70
2023/09/10 02:24:31;;;;;;;14.35;12.15;;;17.40;99.90;;;;;;6242043;23;20096;-70
2023/09/10 02:26:57;;;;;;;13.82;10.38;;;17.40;99.90;;;;;;6241967;23;20024;-70
2023/09/10 02:29:23;;;;;;;14.77;12.10;;;17.40;99.90;;;;;;6242320;23;20051;-71
2023/09/10 02:31:48;;;;;;;15.00;11.38;;;17.40;99.90;;;;;;6242308;23;20008;-70
2023/09/10 02:34:14;;;;;;;13.05;11.65;;;17.30;99.90;;;;;;6241363;23;20135;-70
2023/09/10 02:36:40;;;;;;;16.80;12.30;;;17.30;99.90;;;;;;6215023;23;20078;-70
2023/09/10 02:39:06;;;;;;;17.65;13.05;;;17.30;99.90;;;;;;6214908;23;20059;-70
2023/09/10 02:41:31;;;;;;;14.73;12.32;;;17.30;99.90;;;;;;6241852;23;20020;-70
2023/09/10 02:43:57;;;;;;;14.40;12.38;;;17.30;99.90;;;;;;6214947;23;20023;-70
2023/09/10 02:46:25;;;;;;;16.65;12.18;;;17.30;99.90;;;;;;6214780;23;20488;-70
2023/09/10 02:48:50;;;;;;;16.77;12.40;;;17.30;99.90;;;;;;6241615;23;20480;-70
2023/09/10 02:51:16;;;;;;;14.10;11.77;;;17.30;99.90;;;;;;6214690;23;20046;-70
2023/09/10 02:53:42;;;;;;;18.13;11.52;;;17.40;99.90;;;;;;6242224;23;20020;-70
2023/09/10 02:56:07;;;;;;;14.98;11.35;;;17.30;99.90;;;;;;6215526;23;20024;-70
2023/09/10 02:58:33;;;;;;;13.48;12.07;;;17.30;99.90;;;;;;6242345;23;20052;-70
2023/09/10 03:01:03;;;;;;;13.45;11.00;;;17.30;99.90;;;;;;6242414;23;20027;-70
2023/09/10 03:03:29;;;;;;;19.30;12.13;;;17.30;99.90;;;;;;6241409;23;20078;-70
2023/09/10 03:05:55;;;;;;;12.93;11.43;;;17.30;99.90;;;;;;6241630;23;20020;-70
2023/09/10 03:08:21;;;;;;;15.85;11.45;;;17.30;99.90;;;;;;6241650;23;20020;-70
2023/09/10 03:10:46;;;;;;;15.15;12.20;;;17.30;99.90;;;;;;6242118;23;20017;-70
2023/09/10 03:13:12;;;;;;;14.00;10.90;;;17.30;99.90;;;;;;6214979;23;20051;-70
2023/09/10 03:15:38;;;;;;;14.88;11.55;;;17.30;99.90;;;;;;6241743;23;20056;-70
2023/09/10 03:18:03;;;;;;;15.80;11.85;;;17.20;99.90;;;;;;6241443;23;20023;-70
2023/09/10 03:20:29;;;;;;;15.32;12.40;;;17.20;99.90;;;;;;6214564;23;20016;-70
2023/09/10 03:46:29;;;;;;;14.18;12.68;;;17.00;99.90;;;;;;6218289;22;20123;-70
2023/09/10 03:48:55;;;;;;;17.42;14.23;;;17.10;99.90;;;;;;6137933;23;20040;-70
2023/09/10 03:51:20;;;;;;;16.40;13.68;;;17.10;99.90;;;;;;6151240;23;20021;-70
2023/09/10 03:53:46;;;;;;;19.88;14.10;;;17.10;99.90;;;;;;6151412;23;20032;-70
2023/09/10 03:56:12;;;;;;;15.82;13.57;;;17.00;99.90;;;;;;6124609;23;20064;-70
2023/09/10 03:58:38;;;;;;;16.00;13.45;;;17.10;99.90;;;;;;6100419;23;20029;-71
2023/09/10 04:01:03;;;;;;;17.02;14.13;;;17.00;99.90;;;;;;6150790;23;20401;-70
2023/09/10 04:03:29;;;;;;;15.63;13.55;;;17.00;99.90;;;;;;6150600;23;20446;-70
2023/09/10 04:05:55;;;;;;;16.10;13.80;;;17.00;99.90;;;;;;6151204;23;20018;-70
2023/09/10 04:08:21;;;;;;;16.95;14.02;;;17.00;99.90;;;;;;6150709;23;20025;-71
2023/09/10 04:10:46;;;;;;;15.98;13.80;;;17.00;99.90;;;;;;6150978;23;20017;-70
2023/09/10 04:13:12;;;;;;;16.15;14.20;;;17.00;99.90;;;;;;6151264;23;20029;-70
2023/09/10 04:15:38;;;;;;;17.98;13.77;;;16.90;99.90;;;;;;6150481;23;20067;-70
2023/09/10 04:18:07;;;;;;;15.73;13.18;;;16.90;99.90;;;;;;6124517;23;20017;-70
2023/09/10 04:20:33;;;;;;;17.42;13.82;;;16.90;99.90;;;;;;6150651;23;20025;-70
2023/09/10 04:22:59;;;;;;;18.80;14.32;;;16.80;99.90;;;;;;6151015;23;20017;-71
2023/09/10 04:25:25;;;;;;;18.15;14.63;;;16.90;99.90;;;;;;6150576;23;20049;-70
2023/09/10 04:27:50;;;;;;;17.13;14.00;;;16.90;99.90;;;;;;6124428;23;20022;-70
2023/09/10 04:30:16;;;;;;;18.00;13.55;;;16.80;99.90;;;;;;6152436;23;20116;-70
2023/09/10 04:32:42;;;;;;;17.85;15.30;;;16.80;99.90;;;;;;6126405;23;20036;-70
2023/09/10 04:35:08;;;;;;;28.38;21.65;;;16.80;99.90;;;;;;6126726;23;20036;-70
2023/09/10 04:37:34;;;;;;;31.48;23.88;;;16.80;99.90;;;;;;6152743;23;20140;-70
2023/09/10 04:40:07;;;;;;;33.47;23.10;;;16.70;99.90;;;;;;6126179;23;20535;-70
2023/09/10 04:42:36;;;;;;;36.05;26.17;;;16.70;99.90;;;;;;6152736;23;20022;-70
2023/09/10 04:45:05;;;;;;;33.13;24.95;;;16.80;99.90;;;;;;6126033;23;20496;-70
2023/09/10 04:47:31;;;;;;;34.60;25.88;;;16.70;99.90;;;;;;6165052;23;20029;-70
2023/09/10 04:49:57;;;;;;;34.22;26.65;;;16.70;99.90;;;;;;6155977;23;20831;-70
2023/09/10 04:52:23;;;;;;;33.80;24.85;;;16.70;99.90;;;;;;6182173;23;20075;-70
2023/09/10 04:54:48;;;;;;;31.77;24.58;;;16.70;99.90;;;;;;6155959;23;20144;-70
2023/09/10 04:57:14;;;;;;;34.65;25.73;;;16.70;99.90;;;;;;6182445;23;20330;-70
2023/09/10 04:59:40;;;;;;;32.80;24.63;;;16.70;99.90;;;;;;6181973;23;20397;-70
2023/09/10 05:02:06;;;;;;;34.50;26.40;;;16.70;99.90;;;;;;6182325;23;20390;-70
2023/09/10 05:04:31;;;;;;;33.15;24.52;;;16.60;99.90;;;;;;6182335;23;20029;-69
2023/09/10 05:06:58;;;;;;;26.13;18.77;;;16.60;99.90;;;;;;6131190;23;20021;-70
2023/09/10 05:09:24;;;;;;;21.45;15.63;;;16.50;99.90;;;;;;6156090;23;20024;-70
2023/09/10 05:11:50;;;;;;;21.48;14.68;;;16.50;99.90;;;;;;6156250;23;20032;-70
2023/09/10 05:14:19;;;;;;;16.58;12.60;;;16.50;99.90;;;;;;6155810;23;20354;-70
2023/09/10 05:16:44;;;;;;;12.90;10.13;;;16.50;99.90;;;;;;6156005;23;20021;-70
2023/09/10 05:19:10;;;;;;;19.13;11.15;;;16.50;99.90;;;;;;6182297;23;20032;-70
2023/09/10 05:21:36;;;;;;;10.85;9.05;;;16.50;99.90;;;;;;6155443;23;20409;-70
2023/09/10 05:24:01;;;;;;;12.35;9.88;;;16.60;99.90;;;;;;6182243;23;20017;-70
2023/09/10 05:26:27;;;;;;;12.57;9.93;;;16.50;99.90;;;;;;6154881;23;20448;-70
2023/09/10 05:28:53;;;;;;;17.05;11.35;;;16.50;99.90;;;;;;6182030;23;20523;-70
2023/09/10 05:31:19;;;;;;;13.40;10.60;;;16.60;99.90;;;;;;6182123;23;20048;-70
2023/09/10 05:33:45;;;;;;;13.15;10.57;;;16.60;99.90;;;;;;6182334;23;20032;-70
2023/09/10 05:36:11;;;;;;;12.02;9.40;;;16.60;99.90;;;;;;6155584;23;20370;-70
2023/09/10 05:38:36;;;;;;;12.48;9.15;;;16.70;99.90;;;;;;6181853;23;20013;-70
2023/09/10 05:41:03;;;;;;;11.10;9.73;;;16.70;99.90;;;;;;6182037;23;20024;-70
2023/09/10 05:43:30;;;;;;;14.27;11.40;;;16.70;99.90;;;;;;6181741;23;20021;-70
2023/09/10 05:45:56;;;;;;;13.25;9.63;;;16.70;99.90;;;;;;6155344;23;20013;-70
2023/09/10 05:48:22;;;;;;;12.02;9.30;;;16.70;99.90;;;;;;6181536;23;20024;-70
2023/09/10 05:50:48;;;;;;;11.43;8.98;;;16.80;99.90;;;;;;6155585;23;20390;-70
2023/09/10 05:53:14;;;;;;;13.93;11.10;;;16.80;99.90;;;;;;6181700;23;20472;-70
2023/09/10 05:55:41;;;;;;;13.98;11.68;;;16.80;99.90;;;;;;6181807;23;20025;-70
2023/09/10 05:58:08;;;;;;;19.77;13.80;;;16.90;99.90;;;;;;6181170;23;20021;-70
2023/09/10 06:00:34;;;;;;;13.10;11.23;;;17.00;99.90;;;;;;6181972;23;20032;-70
2023/09/10 06:02:59;;;;;;;12.13;10.55;;;17.00;99.90;;;;;;6155184;23;20021;-70
2023/09/10 06:05:25;;;;;;;13.52;11.20;;;17.00;99.90;;;;;;6155245;23;20064;-70
2023/09/10 06:07:51;;;;;;;15.88;12.63;;;17.10;99.90;;;;;;6182139;23;20512;-70
2023/09/10 06:10:16;;;;;;;16.88;13.60;;;17.10;99.90;;;;;;6154909;23;20017;-71
2023/09/10 06:12:43;;;;;;;15.63;13.15;;;17.10;99.90;;;;;;6155319;23;20020;-71
2023/09/10 06:15:09;;;;;;;16.25;12.55;;;17.20;99.90;;;;;;6182251;23;20464;-70
2023/09/10 06:17:35;;;;;;;14.20;12.30;;;17.30;99.90;;;;;;6155116;23;20029;-70
2023/09/10 06:20:02;;;;;;;17.80;13.85;;;17.30;99.90;;;;;;6182455;23;20059;-70
2023/09/10 06:22:28;;;;;;;17.67;12.82;;;17.40;99.90;;;;;;6157584;23;20028;-70
2023/09/10 06:24:54;;;;;;;19.30;15.10;;;17.40;99.90;;;;;;6156715;23;20448;-70
2023/09/10 06:27:20;;;;;;;21.83;15.75;;;17.50;99.90;;;;;;6155167;23;20112;-70
2023/09/10 06:29:46;;;;;;;19.77;15.95;;;17.50;99.90;;;;;;6154906;23;20032;-71
2023/09/10 06:32:12;;;;;;;19.77;15.27;;;17.60;99.90;;;;;;6155096;23;20025;-70
2023/09/10 06:34:38;;;;;;;24.83;19.45;;;17.70;99.90;;;;;;6155071;23;20021;-71
2023/09/10 06:37:05;;;;;;;30.58;22.55;;;17.70;99.90;;;;;;6181593;23;20068;-71
2023/09/10 06:39:38;;;;;;;29.95;24.17;;;17.80;99.90;;;;;;6181654;23;20344;-71
2023/09/10 06:42:07;;;;;;;39.78;26.83;;;17.90;99.90;;;;;;6181702;23;20025;-70
2023/09/10 06:44:33;;;;;;;38.70;28.65;;;18.00;99.90;;;;;;6155087;23;20021;-70
2023/09/10 06:46:59;;;;;;;42.17;31.33;;;18.10;99.90;;;;;;6181460;23;20044;-71
2023/09/10 06:49:26;;;;;;;50.85;36.97;;;18.20;99.90;;;;;;6155126;23;20017;-71
2023/09/10 06:51:51;;;;;;;49.92;36.97;;;18.30;99.90;;;;;;6154736;23;20080;-70
2023/09/10 06:54:17;;;;;;;56.92;38.63;;;18.40;99.90;;;;;;6154700;23;20020;-71
2023/09/10 06:56:43;;;;;;;62.90;42.58;;;18.50;99.90;;;;;;6181501;23;20021;-71
2023/09/10 06:59:08;;;;;;;60.00;43.47;;;18.60;99.90;;;;;;6154738;23;20742;-71
2023/09/10 07:01:37;;;;;;;60.00;44.45;;;18.70;99.90;;;;;;6154536;23;20068;-71
2023/09/10 07:04:19;;;;;;;58.35;41.97;;;18.80;99.90;;;;;;6181392;23;20428;-71
2023/09/10 07:06:45;;;;;;;59.75;43.85;;;18.90;99.90;;;;;;6154404;23;20040;-70
2023/09/10 07:09:11;;;;;;;62.45;44.00;;;18.90;99.90;;;;;;6154431;23;20025;-71
2023/09/10 07:11:37;;;;;;;54.58;41.47;;;19.00;99.90;;;;;;6154645;23;20017;-70
2023/09/10 07:14:03;;;;;;;60.88;43.33;;;19.10;99.90;;;;;;6154379;23;20385;-71
2023/09/10 07:16:29;;;;;;;59.78;42.40;;;19.20;99.90;;;;;;6154335;23;20072;-71
2023/09/10 07:18:54;;;;;;;58.58;41.17;;;19.30;99.90;;;;;;6154435;23;20032;-71
2023/09/10 07:21:20;;;;;;;56.65;41.25;;;19.40;99.90;;;;;;6154442;23;20052;-71
2023/09/10 07:23:46;;;;;;;58.88;42.63;;;19.40;99.90;;;;;;6154645;23;20099;-71
2023/09/10 07:26:11;;;;;;;59.05;43.40;;;19.50;99.90;;;;;;6181226;23;20023;-71
2023/09/10 07:28:37;;;;;;;55.78;42.30;;;19.60;99.90;;;;;;6154747;23;20029;-71
2023/09/10 07:31:03;;;;;;;54.40;41.22;;;19.60;99.90;;;;;;6181587;23;20021;-71
2023/09/10 07:33:29;;;;;;;57.55;40.90;;;19.70;99.90;;;;;;6154732;23;20755;-71
2023/09/10 07:35:55;;;;;;;53.97;38.97;;;19.80;99.90;;;;;;6181267;23;20079;-70
2023/09/10 07:38:20;;;;;;;52.35;37.85;;;19.80;99.90;;;;;;6180942;23;20021;-71
2023/09/10 07:40:46;;;;;;;52.25;37.45;;;19.90;99.90;;;;;;6181138;23;20386;-70
2023/09/10 07:43:12;;;;;;;51.22;36.97;;;19.90;99.90;;;;;;6154065;23;20349;-71
2023/09/10 07:45:39;;;;;;;50.33;36.67;;;20.10;99.90;;;;;;6154025;23;20454;-70
2023/09/10 07:48:06;;;;;;;45.00;34.80;;;20.10;99.90;;;;;;6180425;23;20100;-70
2023/09/10 07:50:32;;;;;;;48.75;35.47;;;20.10;99.90;;;;;;6180705;23;20021;-70
2023/09/10 07:52:57;;;;;;;45.78;33.78;;;20.30;99.90;;;;;;6153783;23;20028;-71
2023/09/10 07:55:23;;;;;;;50.85;34.88;;;20.30;99.90;;;;;;6180440;23;20013;-71
2023/09/10 07:57:49;;;;;;;42.75;33.03;;;20.40;99.90;;;;;;6153920;23;20115;-70
2023/09/10 08:00:19;;;;;;;42.95;31.13;;;20.50;99.90;;;;;;6129759;23;20021;-70
2023/09/10 08:02:45;;;;;;;39.83;30.00;;;20.50;99.90;;;;;;6154483;23;20027;-71
2023/09/10 08:05:11;;;;;;;35.83;29.73;;;20.60;99.90;;;;;;6154144;23;20029;-70
2023/09/10 08:07:37;;;;;;;42.65;30.85;;;20.70;99.90;;;;;;6154190;23;20017;-71
2023/09/10 08:10:03;;;;;;;40.22;30.23;;;20.80;99.90;;;;;;6181136;23;20031;-71
2023/09/10 08:12:29;;;;;;;38.00;29.05;;;20.80;99.90;;;;;;6181021;23;20319;-71
2023/09/10 08:14:54;;;;;;;40.30;29.42;;;20.80;99.90;;;;;;6154823;23;20108;-71
2023/09/10 08:17:21;;;;;;;40.30;30.20;;;20.90;99.90;;;;;;6181188;23;20021;-71
2023/09/10 08:19:46;;;;;;;35.53;29.33;;;21.10;99.90;;;;;;6154430;23;20025;-71
2023/09/10 08:22:12;;;;;;;34.28;27.35;;;21.10;99.90;;;;;;6153956;23;20023;-70
2023/09/10 08:24:38;;;;;;;40.00;29.88;;;21.20;99.90;;;;;;6129097;23;20032;-71
2023/09/10 08:27:04;;;;;;;35.85;27.20;;;21.30;99.90;;;;;;6180388;23;20017;-71
2023/09/10 08:29:30;;;;;;;37.63;28.95;;;21.40;99.90;;;;;;6180914;23;20101;-71
2023/09/10 08:31:57;;;;;;;36.05;28.08;;;21.40;99.90;;;;;;6153968;23;20061;-71
2023/09/10 08:34:23;;;;;;;41.40;29.48;;;21.50;99.90;;;;;;6153929;23;20450;-71
2023/09/10 08:36:48;;;;;;;42.30;28.92;;;21.60;99.90;;;;;;6129123;23;20028;-71
2023/09/10 08:39:14;;;;;;;34.65;27.52;;;21.60;99.90;;;;;;6180298;23;20025;-71
2023/09/10 08:41:54;;;;;;;40.05;28.52;;;21.70;99.90;;;;;;6180612;23;20040;-71
2023/09/10 08:44:22;;;;;;;34.33;26.85;;;21.80;99.90;;;;;;6180773;23;20081;-70
2023/09/10 08:46:49;;;;;;;36.90;27.85;;;21.80;99.90;;;;;;6180640;23;20016;-70
2023/09/10 08:49:17;;;;;;;37.28;26.38;;;21.90;99.90;;;;;;6179935;23;20033;-71
2023/09/10 08:51:43;;;;;;;33.28;26.48;;;22.00;99.90;;;;;;6180084;23;20025;-71
2023/09/10 08:54:10;;;;;;;34.30;26.77;;;22.10;99.90;;;;;;6153809;23;20103;-71
2023/09/10 08:56:36;;;;;;;35.17;26.08;;;22.10;99.90;;;;;;6180534;23;20040;-71
2023/09/10 08:59:04;;;;;;;36.90;26.98;;;22.20;99.90;;;;;;6153759;23;20028;-71
2023/09/10 09:01:30;;;;;;;33.85;25.65;;;22.30;99.90;;;;;;6180716;23;20352;-71
2023/09/10 09:03:55;;;;;;;33.38;26.27;;;22.40;99.90;;;;;;6180658;23;20021;-70
2023/09/10 09:06:22;;;;;;;35.53;26.38;;;22.40;99.90;;;;;;6153646;23;20131;-70
2023/09/10 09:08:51;;;;;;;33.55;25.77;;;22.50;99.90;;;;;;6153657;23;20025;-71
2023/09/10 09:11:17;;;;;;;33.75;23.80;;;22.50;99.90;;;;;;6180230;23;20484;-71
2023/09/10 09:13:46;;;;;;;32.58;24.13;;;22.60;99.90;;;;;;6154040;23;20017;-71
2023/09/10 09:16:13;;;;;;;33.33;24.85;;;22.60;99.90;;;;;;6130378;23;20528;-71
2023/09/10 09:18:40;;;;;;;29.60;23.65;;;22.60;99.90;;;;;;6182303;23;20029;-71
2023/09/10 09:21:17;;;;;;;29.95;23.35;;;22.70;99.90;;;;;;6181587;23;20048;-71
2023/09/10 09:23:51;;;;;;;31.15;24.88;;;22.80;99.90;;;;;;6182386;23;20013;-71
2023/09/10 09:26:17;;;;;;;30.30;21.83;;;22.80;99.90;;;;;;6181977;23;20021;-70
2023/09/10 09:28:44;;;;;;;27.48;21.58;;;22.90;99.90;;;;;;6182325;23;20024;-71
2023/09/10 09:31:10;;;;;;;27.17;22.35;;;23.00;99.90;;;;;;6182371;23;20445;-70
2023/09/10 09:33:39;;;;;;;28.83;21.73;;;22.90;99.90;;;;;;6155078;23;20025;-71
2023/09/10 09:36:10;;;;;;;25.65;20.88;;;23.10;99.90;;;;;;6155483;23;20032;-70
2023/09/10 09:38:41;;;;;;;24.52;20.33;;;23.00;99.90;;;;;;6155652;23;20025;-71
2023/09/10 09:41:07;;;;;;;23.80;18.83;;;23.20;99.90;;;;;;6182224;23;20033;-71
2023/09/10 09:43:34;;;;;;;25.95;17.55;;;23.30;99.90;;;;;;6155310;23;20029;-71
2023/09/10 09:46:02;;;;;;;24.05;18.00;;;23.30;99.90;;;;;;6130656;23;20020;-71
2023/09/10 09:48:29;;;;;;;31.23;19.02;;;23.40;99.90;;;;;;6181670;23;20025;-71
2023/09/10 09:50:56;;;;;;;24.92;18.75;;;23.50;99.90;;;;;;6181763;23;20021;-71
2023/09/10 09:53:27;;;;;;;28.67;20.02;;;23.50;99.90;;;;;;6155514;23;20020;-71
2023/09/10 09:56:05;;;;;;;20.42;17.65;;;23.50;99.90;;;;;;6182208;23;20385;-71
2023/09/10 09:58:32;;;;;;;22.50;17.88;;;23.70;99.90;;;;;;6181837;23;20032;-70
2023/09/10 10:00:59;;;;;;;25.98;17.98;;;23.70;99.90;;;;;;6182347;23;20025;-70
2023/09/10 10:03:25;;;;;;;23.58;19.38;;;23.70;99.90;;;;;;6182129;23;20028;-71
2023/09/10 10:05:52;;;;;;;26.52;17.67;;;23.70;99.90;;;;;;6155652;23;20063;-71
2023/09/10 10:08:23;;;;;;;21.20;17.35;;;23.70;99.90;;;;;;6181932;23;20029;-71
2023/09/10 10:10:49;;;;;;;23.50;17.08;;;23.90;99.90;;;;;;6143104;23;20029;-71
2023/09/10 10:13:20;;;;;;;23.20;17.13;;;23.90;99.90;;;;;;6182029;23;20021;-71
2023/09/10 10:15:50;;;;;;;25.13;16.10;;;23.90;99.90;;;;;;6130671;23;20036;-71
2023/09/10 10:18:18;;;;;;;23.20;16.10;;;24.00;99.90;;;;;;6181852;23;20024;-71
2023/09/10 10:20:49;;;;;;;23.48;17.58;;;24.10;99.90;;;;;;6155748;23;20021;-71
2023/09/10 10:23:16;;;;;;;17.52;15.40;;;24.10;99.90;;;;;;6181713;23;20346;-71
2023/09/10 10:25:43;;;;;;;21.20;16.45;;;24.20;99.90;;;;;;6154526;23;20113;-71
2023/09/10 10:28:10;;;;;;;18.05;14.32;;;24.20;99.90;;;;;;6130152;23;20066;-71
2023/09/10 10:30:44;;;;;;;18.83;15.75;;;24.30;99.90;;;;;;6154760;23;20090;-71
2023/09/10 10:33:12;;;;;;;19.48;14.93;;;24.40;99.90;;;;;;6154661;23;20124;-71
2023/09/10 10:35:44;;;;;;;17.80;13.93;;;24.40;99.90;;;;;;6181757;23;20457;-71
2023/09/10 10:38:13;;;;;;;20.70;14.95;;;24.50;99.90;;;;;;6154716;23;20340;-71
2023/09/10 10:40:42;;;;;;;19.40;15.25;;;24.60;99.90;;;;;;6181724;23;20016;-71
2023/09/10 10:43:15;;;;;;;19.80;14.93;;;24.60;99.90;;;;;;6181454;23;20028;-71
2023/09/10 10:45:44;;;;;;;21.92;14.88;;;24.70;99.90;;;;;;6181620;23;20029;-71
2023/09/10 10:48:17;;;;;;;17.58;14.25;;;24.70;99.90;;;;;;6181213;23;20033;-71
2023/09/10 10:50:44;;;;;;;18.85;12.48;;;24.70;99.90;;;;;;6181482;23;20028;-70
2023/09/10 10:53:21;;;;;;;25.42;12.70;;;24.70;99.90;;;;;;6154897;23;20025;-71
2023/09/10 10:55:53;;;;;;;19.80;14.38;;;24.90;99.90;;;;;;6181741;23;20060;-71
2023/09/10 10:58:25;;;;;;;19.77;14.82;;;24.80;99.90;;;;;;6154701;23;20020;-71
2023/09/10 11:00:52;;;;;;;16.35;13.60;;;24.90;99.90;;;;;;6154494;23;20021;-70
2023/09/10 11:03:20;;;;;;;18.15;13.63;;;24.90;99.90;;;;;;6180981;23;20021;-71
2023/09/10 11:05:52;;;;;;;21.20;15.23;;;25.00;99.90;;;;;;6181225;23;20025;-71
2023/09/10 11:08:37;;;;;;;;;;;25.10;99.90;;;;;;6155045;23;20099;-71
2023/09/10 11:11:08;;;;;;;19.13;14.35;;;25.00;99.90;;;;;;6180087;23;19938;-70
2023/09/10 11:13:54;;;;;;;17.73;13.40;;;25.10;99.90;;;;;;6154447;23;20219;-71
2023/09/10 11:16:19;;;;;;;21.45;12.82;;;25.10;99.90;;;;;;6180625;23;20056;-71
2023/09/10 11:18:46;;;;;;;17.77;13.80;;;25.10;99.90;;;;;;6181185;23;20028;-71
2023/09/10 11:21:14;;;;;;;17.65;13.27;;;25.20;99.90;;;;;;6181089;23;20017;-71
2023/09/10 11:24:10;;;;;;;21.00;12.43;;;25.30;99.90;;;;;;6181468;23;20584;-71
2023/09/10 11:26:35;;;;;;;19.35;12.10;;;25.30;99.90;;;;;;6181193;23;20023;-71
2023/09/10 11:29:04;;;;;;;18.75;14.48;;;25.30;99.90;;;;;;6181693;23;20126;-71
2023/09/10 11:31:38;;;;;;;16.08;12.75;;;25.30;99.90;;;;;;6154541;23;20327;-70
2023/09/10 11:36:54;;;;;;;13.75;10.75;;;25.40;99.90;;;;;;6181255;23;20060;-70
2023/09/10 11:39:20;;;;;;;16.00;11.35;;;25.50;99.90;;;;;;6180709;23;20022;-70
2023/09/10 11:41:47;;;;;;;24.75;11.82;;;25.50;99.90;;;;;;6129184;23;20032;-71
2023/09/10 11:44:12;;;;;;;24.05;10.38;;;25.60;99.90;;;;;;6154003;23;20024;-71
2023/09/10 11:46:39;;;;;;;16.67;11.13;;;25.70;99.90;;;;;;6180775;23;20025;-71
2023/09/10 11:49:05;;;;;;;15.27;9.55;;;25.60;99.90;;;;;;6153935;23;20060;-71
2023/09/10 11:51:31;;;;;;;14.57;9.38;;;25.60;99.90;;;;;;6180979;23;20021;-71
2023/09/10 11:53:57;;;;;;;22.35;10.80;;;25.70;99.90;;;;;;6154359;23;20093;-71
2023/09/10 11:56:24;;;;;;;16.25;9.88;;;25.70;99.90;;;;;;6154182;23;20115;-71
2023/09/10 11:58:49;;;;;;;15.52;10.55;;;25.70;99.90;;;;;;6129338;23;20021;-70
2023/09/10 12:01:15;;;;;;;20.30;9.80;;;25.70;99.90;;;;;;6154627;23;20017;-70
2023/09/10 12:03:41;;;;;;;21.30;9.93;;;25.80;99.90;;;;;;6181161;23;20093;-71
2023/09/10 12:06:07;;;;;;;18.25;9.15;;;25.90;99.90;;;;;;6180852;23;20472;-71
2023/09/10 12:08:33;;;;;;;15.68;9.45;;;25.90;99.90;;;;;;6154602;23;20029;-71
2023/09/10 12:11:03;;;;;;;16.88;8.90;;;26.00;99.90;;;;;;6154527;23;20040;-70
2023/09/10 12:13:32;;;;;;;25.60;9.82;;;25.90;99.90;;;;;;6129748;23;20052;-71
2023/09/10 12:15:58;;;;;;;20.65;9.68;;;26.00;99.90;;;;;;6181090;23;20075;-70
2023/09/10 12:18:24;;;;;;;23.23;8.75;;;26.00;99.90;;;;;;6129663;23;20033;-71
2023/09/10 12:20:50;;;;;;;25.77;8.32;;;26.00;99.90;;;;;;6154036;23;20021;-70
2023/09/10 12:23:16;;;;;;;19.25;9.20;;;26.00;99.90;;;;;;6180539;23;20013;-70
2023/09/10 12:25:42;;;;;;;19.25;9.50;;;26.00;99.90;;;;;;6180540;23;20067;-70
2023/09/10 12:28:08;;;;;;;17.23;9.15;;;26.00;99.90;;;;;;6180282;23;20017;-70
2023/09/10 12:30:35;;;;;;;25.85;9.65;;;26.20;99.90;;;;;;6180827;23;20032;-70
2023/09/10 12:33:01;;;;;;;22.17;9.77;;;26.20;99.90;;;;;;6153839;23;20025;-71
2023/09/10 12:35:28;;;;;;;19.58;9.30;;;26.20;99.90;;;;;;6180612;23;20016;-71
2023/09/10 12:37:54;;;;;;;23.98;8.85;;;26.20;99.90;;;;;;6180357;23;20064;-71
2023/09/10 12:40:21;;;;;;;19.55;9.05;;;26.20;99.90;;;;;;6154032;23;20029;-70
2023/09/10 12:42:48;;;;;;;21.38;9.30;;;26.20;99.90;;;;;;6180467;23;20025;-71
2023/09/10 12:45:15;;;;;;;16.95;8.82;;;26.20;99.90;;;;;;6154187;23;20025;-71
2023/09/10 12:47:42;;;;;;;26.15;9.73;;;26.30;99.90;;;;;;6180640;23;20017;-71
2023/09/10 12:50:08;;;;;;;20.80;8.68;;;26.30;99.90;;;;;;6180822;23;20025;-71
2023/09/10 12:52:35;;;;;;;16.42;7.70;;;26.40;99.90;;;;;;6182926;23;20107;-71
2023/09/10 12:55:02;;;;;;;15.57;8.23;;;26.30;99.90;;;;;;6182470;23;20028;-70